createdAt,value
2022-10-23T00:00:00.704Z,7.9
2022-10-23T00:05:00.700Z,8.1
2022-10-23T00:10:00.688Z,8
2022-10-23T00:15:00.652Z,7.8
2022-10-23T00:20:00.676Z,7.8
2022-10-23T00:25:00.717Z,7.7
2022-10-23T00:30:00.692Z,7.7
2022-10-23T00:35:00.667Z,7.7
2022-10-23T00:40:00.705Z,7.7
2022-10-23T00:45:00.712Z,7.7
2022-10-23T00:50:00.638Z,7.7
2022-10-23T00:55:00.686Z,7.7
2022-10-23T01:00:00.649Z,7.8
2022-10-23T01:05:00.702Z,7.7
2022-10-23T01:10:00.493Z,7.8
2022-10-23T01:15:00.387Z,7.8
2022-10-23T01:20:00.650Z,7.8
2022-10-23T01:25:00.441Z,7.8
2022-10-23T01:30:00.675Z,7.8
2022-10-23T01:35:00.765Z,7.8
2022-10-23T01:40:00.473Z,7.9
2022-10-23T01:45:00.669Z,7.8
2022-10-23T01:50:00.739Z,7.8
2022-10-23T01:55:00.448Z,7.7
2022-10-23T02:00:00.733Z,7.7
2022-10-23T02:05:00.487Z,7.6
2022-10-23T02:10:00.752Z,7.6
2022-10-23T02:15:00.675Z,7.6
2022-10-23T02:20:00.746Z,7.6
2022-10-23T02:25:00.657Z,7.6
2022-10-23T02:30:00.624Z,7.6
2022-10-23T02:35:00.726Z,7.6
2022-10-23T02:40:00.689Z,7.6
2022-10-23T02:45:00.731Z,7.6
2022-10-23T02:50:00.736Z,7.6
2022-10-23T02:55:00.751Z,7.6
2022-10-23T03:00:00.691Z,7.6
2022-10-23T03:05:00.768Z,7.6
2022-10-23T03:10:00.718Z,7.6
2022-10-23T03:15:00.681Z,7.6
2022-10-23T03:20:00.710Z,7.6
2022-10-23T03:25:00.476Z,7.7
2022-10-23T03:30:00.675Z,7.6
2022-10-23T03:35:00.696Z,7.5
2022-10-23T03:40:00.534Z,7.5
2022-10-23T03:45:00.698Z,7.5
2022-10-23T03:50:00.724Z,7.6
2022-10-23T03:55:00.705Z,7.7
2022-10-23T04:00:00.727Z,7.8
2022-10-23T04:05:00.744Z,7.8
2022-10-23T04:10:00.654Z,7.8
2022-10-23T04:15:00.734Z,7.8
2022-10-23T04:20:00.702Z,7.7
2022-10-23T04:25:00.680Z,7.7
2022-10-23T04:30:00.686Z,7.7
2022-10-23T04:35:00.709Z,7.7
2022-10-23T04:40:00.729Z,7.6
2022-10-23T04:45:00.761Z,7.6
2022-10-23T04:50:00.695Z,7.7
2022-10-23T04:55:00.645Z,7.7
2022-10-23T05:00:00.719Z,7.7
2022-10-23T05:05:00.674Z,7.8
2022-10-23T05:10:00.685Z,7.7
2022-10-23T05:15:00.730Z,7.7
2022-10-23T05:20:00.686Z,7.7
2022-10-23T05:25:00.696Z,7.7
2022-10-23T05:30:00.680Z,7.7
2022-10-23T05:35:00.741Z,7.6
2022-10-23T05:40:00.639Z,7.5
2022-10-23T05:45:00.677Z,7.5
2022-10-23T05:50:00.678Z,7.5
2022-10-23T05:55:00.736Z,7.5
2022-10-23T06:00:00.730Z,7.5
2022-10-23T06:05:00.478Z,7.6
2022-10-23T06:10:00.753Z,7.6
2022-10-23T06:15:00.963Z,7.6
2022-10-23T06:20:00.811Z,7.5
2022-10-23T06:25:00.717Z,7.5
2022-10-23T06:30:00.771Z,7.5
2022-10-23T06:35:00.714Z,7.7
2022-10-23T06:40:00.709Z,7.8
2022-10-23T06:45:03.307Z,7.8
2022-10-23T06:50:00.723Z,7.9
2022-10-23T06:55:00.706Z,8
2022-10-23T07:00:00.722Z,8.1
2022-10-23T07:05:00.747Z,8.2
2022-10-23T07:10:00.773Z,8.3
2022-10-23T07:15:00.702Z,8.3
2022-10-23T07:20:00.719Z,8.4
2022-10-23T07:25:00.708Z,8.5
2022-10-23T07:30:00.688Z,8.6
2022-10-23T07:35:00.708Z,8.8
2022-10-23T07:40:00.712Z,8.9
2022-10-23T07:45:00.718Z,9
2022-10-23T07:50:00.725Z,9.3
2022-10-23T07:55:00.739Z,9.3
2022-10-23T08:00:00.855Z,9.4
2022-10-23T08:05:00.691Z,9.8
2022-10-23T08:10:00.750Z,10.2
2022-10-23T08:15:00.749Z,10.5
2022-10-23T08:20:00.718Z,10.6
2022-10-23T08:25:00.711Z,10.4
2022-10-23T08:30:00.669Z,10.2
2022-10-23T08:35:00.865Z,10.2
2022-10-23T08:40:00.719Z,10.3
2022-10-23T08:45:00.714Z,10.6
2022-10-23T08:50:00.672Z,10.8
2022-10-23T08:55:00.644Z,11.2
2022-10-23T09:00:00.698Z,11.1
2022-10-23T09:05:00.721Z,10.8
2022-10-23T09:10:00.715Z,10.8
2022-10-23T09:15:00.732Z,10.7
2022-10-23T09:20:00.683Z,10.5
2022-10-23T09:25:00.803Z,10.3
2022-10-23T09:30:00.728Z,10.4
2022-10-23T09:35:00.718Z,10.2
2022-10-23T09:40:00.695Z,10.3
2022-10-23T09:45:00.761Z,10.4
2022-10-23T09:50:00.757Z,10.5
2022-10-23T09:55:00.718Z,10.6
2022-10-23T10:00:00.732Z,10.7
2022-10-23T10:05:00.737Z,10.6
2022-10-23T10:10:00.701Z,10.8
2022-10-23T10:15:00.733Z,11.1
2022-10-23T10:20:02.464Z,11.2
2022-10-23T10:25:00.729Z,11.1
2022-10-23T10:30:00.721Z,11
2022-10-23T10:35:00.762Z,11.2
2022-10-23T10:40:00.709Z,11
2022-10-23T10:45:00.699Z,10.9
2022-10-23T10:50:00.725Z,11
2022-10-23T10:55:00.664Z,11.1
2022-10-23T11:00:00.742Z,10.9
2022-10-23T11:05:00.733Z,10.9
2022-10-23T11:10:00.810Z,10.8
2022-10-23T11:15:00.701Z,10.8
2022-10-23T11:20:00.712Z,10.6
2022-10-23T11:25:00.729Z,10.7
2022-10-23T11:30:00.723Z,10.5
2022-10-23T11:35:00.679Z,10.4
2022-10-23T11:40:00.760Z,10.4
2022-10-23T11:45:00.698Z,10.4
2022-10-23T11:50:00.681Z,10.5
2022-10-23T11:55:00.718Z,10.7
2022-10-23T12:00:00.678Z,10.6
2022-10-23T12:05:00.682Z,10.9
2022-10-23T12:10:00.698Z,10.9
2022-10-23T12:15:00.694Z,10.8
2022-10-23T12:20:00.671Z,10.9
2022-10-23T12:25:00.667Z,11.1
2022-10-23T12:30:00.707Z,11
2022-10-23T12:40:00.688Z,10.6
2022-10-23T12:45:00.719Z,10.5
2022-10-23T12:50:00.712Z,10.4
2022-10-23T13:00:00.703Z,10.3
2022-10-23T13:10:00.701Z,10.7
2022-10-23T13:15:00.751Z,10.9
2022-10-23T13:20:00.684Z,10.9
2022-10-23T13:25:00.660Z,11.1
2022-10-23T13:30:00.643Z,11.1
2022-10-23T13:35:04.311Z,11.2
2022-10-23T13:40:00.713Z,10.8
2022-10-23T13:45:00.650Z,10.8
2022-10-23T13:50:00.681Z,11
2022-10-23T13:55:00.681Z,11
2022-10-23T14:00:00.652Z,10.8
2022-10-23T14:05:00.664Z,11
2022-10-23T14:10:00.646Z,10.8
2022-10-23T14:15:00.669Z,11
2022-10-23T14:20:01.482Z,11
2022-10-23T14:25:00.664Z,11.1
2022-10-23T14:30:00.703Z,11
2022-10-23T14:35:00.644Z,11
2022-10-23T14:45:00.686Z,11
2022-10-23T14:55:00.650Z,11.2
2022-10-23T15:00:00.639Z,11.3
2022-10-23T15:05:00.687Z,11.3
2022-10-23T15:10:00.648Z,11.1
2022-10-23T15:15:00.694Z,11.2
2022-10-23T15:20:00.642Z,11.3
2022-10-23T15:25:00.714Z,11.2
2022-10-23T15:30:00.665Z,11.4
2022-10-23T15:35:00.668Z,11.4
2022-10-23T15:40:01.378Z,11.4
2022-10-23T15:45:00.659Z,11.3
2022-10-23T15:50:00.703Z,11.3
2022-10-23T15:55:00.695Z,11.2
2022-10-23T16:00:00.715Z,11.1
2022-10-23T16:05:00.638Z,11.1
2022-10-23T16:10:00.792Z,11
2022-10-23T16:15:00.645Z,10.8
2022-10-23T16:20:00.642Z,11
2022-10-23T16:25:00.630Z,10.8
2022-10-23T16:30:00.663Z,11
2022-10-23T16:35:00.636Z,10.8
2022-10-23T16:40:00.646Z,10.9
2022-10-23T16:45:00.724Z,10.9
2022-10-23T16:50:00.745Z,10.8
2022-10-23T16:55:00.639Z,10.9
2022-10-23T17:00:00.705Z,10.8
2022-10-23T17:05:00.652Z,10.8
2022-10-23T17:10:00.656Z,10.8
2022-10-23T17:15:00.666Z,10.8
2022-10-23T17:20:00.785Z,10.8
2022-10-23T17:25:00.649Z,10.8
2022-10-23T17:30:00.654Z,10.9
2022-10-23T17:35:00.636Z,10.8
2022-10-23T17:45:00.637Z,10.9
2022-10-23T17:50:00.990Z,10.9
2022-10-23T17:55:00.638Z,10.8
2022-10-23T18:00:00.634Z,10.8
2022-10-23T18:05:00.624Z,10.9
2022-10-23T18:10:00.651Z,10.8
2022-10-23T18:15:00.690Z,10.8
2022-10-23T18:20:02.092Z,10.8
2022-10-23T18:25:00.659Z,10.9
2022-10-23T18:30:00.627Z,10.9
2022-10-23T18:35:00.484Z,10.9
2022-10-23T18:40:00.641Z,10.9
2022-10-23T18:45:00.614Z,11
2022-10-23T18:50:00.617Z,10.9
2022-10-23T18:55:00.647Z,10.9
2022-10-23T19:00:00.655Z,11
2022-10-23T19:05:00.660Z,11
2022-10-23T19:10:00.664Z,10.9
2022-10-23T19:15:00.647Z,11
2022-10-23T19:20:00.629Z,11
2022-10-23T19:25:00.653Z,11.1
2022-10-23T19:30:00.690Z,11.1
2022-10-23T19:35:00.629Z,11
2022-10-23T19:40:00.644Z,10.9
2022-10-23T19:45:00.638Z,11
2022-10-23T19:50:00.613Z,11.2
2022-10-23T19:55:00.636Z,11
2022-10-23T20:00:00.641Z,10.7
2022-10-23T20:05:00.624Z,10.6
2022-10-23T20:10:00.619Z,10.5
2022-10-23T20:15:00.638Z,10.5
2022-10-23T20:20:00.621Z,10.5
2022-10-23T20:25:00.623Z,10.5
2022-10-23T20:30:00.717Z,10.4
2022-10-23T20:35:00.638Z,10.5
2022-10-23T20:40:00.616Z,10.5
2022-10-23T20:45:00.685Z,10.5
2022-10-23T20:50:00.610Z,10.5
2022-10-23T20:55:00.642Z,10.5
2022-10-23T21:00:00.609Z,10.4
2022-10-23T21:05:00.615Z,10.3
2022-10-23T21:10:00.619Z,10.3
2022-10-23T21:15:00.617Z,10.3
2022-10-23T21:20:00.616Z,10.3
2022-10-23T21:25:00.426Z,10.2
2022-10-23T21:30:00.666Z,10.4
2022-10-23T21:35:00.630Z,10.4
2022-10-23T21:40:00.626Z,10.4
2022-10-23T21:45:00.626Z,10.5
2022-10-23T21:50:00.618Z,10.6
2022-10-23T21:55:00.633Z,10.5
2022-10-23T22:00:00.666Z,10.6
2022-10-23T22:05:00.660Z,10.6
2022-10-23T22:10:00.611Z,10.6
2022-10-23T22:15:00.631Z,10.5
2022-10-23T22:20:00.642Z,10.6
2022-10-23T22:25:00.653Z,10.6
2022-10-23T22:30:00.625Z,10.6
2022-10-23T22:35:00.795Z,10.5
2022-10-23T22:40:00.608Z,10.5
2022-10-23T22:45:00.651Z,10.7
2022-10-23T22:50:00.658Z,10.7
2022-10-23T22:55:00.631Z,10.7
2022-10-23T23:00:00.627Z,10.7
2022-10-23T23:05:00.693Z,10.6
2022-10-23T23:10:00.650Z,10.6
2022-10-23T23:15:00.625Z,10.4
2022-10-23T23:20:00.637Z,10.4
2022-10-23T23:25:00.680Z,10.4
2022-10-23T23:30:00.649Z,10.3
2022-10-23T23:35:00.636Z,10.3
2022-10-23T23:40:00.672Z,10.3
2022-10-23T23:45:10.198Z,10.4
2022-10-23T23:55:00.667Z,10.6
